Time;durP1;ratioP1;P1;durP2;ratioP2;P2;SDS_P1;SDS_P2;PMS_P1;PMS_P2;Temp;Humidity;BMP_temperature;BMP_pressure;BME280_temperature;BME280_humidity;BME280_pressure;Samples;Min_cycle;Max_cycle;Signal;HPM_P1;HPM_P2
2021/05/26 00:01:26;;;;;;;2.67;0.75;;;11.70;1.00;;;;;;5060675;28;20640;-62
2021/05/26 00:04:14;;;;;;;1.85;0.77;;;11.70;1.00;;;;;;5064139;28;20539;-62
2021/05/26 00:07:02;;;;;;;3.50;1.15;;;11.70;1.00;;;;;;5063745;28;20131;-61
2021/05/26 00:09:50;;;;;;;2.55;0.80;;;11.70;1.00;;;;;;5063584;28;20056;-61
2021/05/26 00:12:38;;;;;;;5.35;1.10;;;11.70;1.00;;;;;;5061046;28;20086;-62
2021/05/26 00:15:27;;;;;;;5.15;1.10;;;11.70;1.00;;;;;;5067112;28;20130;-63
2021/05/26 00:18:16;;;;;;;2.42;0.70;;;11.70;1.00;;;;;;5062750;28;20131;-63
2021/05/26 00:21:05;;;;;;;4.70;0.85;;;11.80;1.00;;;;;;5053207;28;20745;-62
2021/05/26 00:23:54;;;;;;;3.08;0.90;;;11.80;1.00;;;;;;5066231;28;20045;-65
2021/05/26 00:26:44;;;;;;;2.70;0.70;;;11.80;1.00;;;;;;5066327;28;20048;-65
2021/05/26 00:29:32;;;;;;;1.52;0.95;;;11.80;1.00;;;;;;5067273;28;20121;-65
2021/05/26 00:32:20;;;;;;;3.78;1.08;;;11.80;1.00;;;;;;5064473;28;20064;-65
2021/05/26 00:35:10;;;;;;;1.58;0.80;;;11.80;1.00;;;;;;5067007;28;20048;-64
2021/05/26 00:37:58;;;;;;;1.40;0.90;;;11.80;1.00;;;;;;5067845;28;20087;-64
2021/05/26 00:40:46;;;;;;;3.05;0.82;;;11.90;1.00;;;;;;5065237;28;20164;-65
2021/05/26 00:43:34;;;;;;;2.70;0.90;;;11.80;1.00;;;;;;5064635;28;20087;-65
2021/05/26 00:46:22;;;;;;;1.52;0.80;;;11.80;1.00;;;;;;5066651;28;20052;-64
2021/05/26 00:49:13;;;;;;;4.10;0.80;;;11.80;1.00;;;;;;5063461;28;20364;-65
2021/05/26 00:52:01;;;;;;;2.42;0.90;;;11.80;1.00;;;;;;5046290;28;20071;-65
2021/05/26 00:54:48;;;;;;;1.80;1.05;;;11.80;1.00;;;;;;5053108;28;20084;-65
2021/05/26 00:57:36;;;;;;;3.10;0.98;;;11.80;1.00;;;;;;5067598;28;20049;-65
2021/05/26 01:00:27;;;;;;;1.70;1.00;;;11.90;1.00;;;;;;5066551;28;20051;-66
2021/05/26 01:03:35;;;;;;;2.72;1.17;;;11.90;1.00;;;;;;5052016;28;20415;-65
2021/05/26 01:06:24;;;;;;;3.03;1.00;;;11.80;1.00;;;;;;5065549;28;20186;-65
2021/05/26 01:09:12;;;;;;;2.53;1.05;;;11.80;1.00;;;;;;5069804;28;20043;-65
2021/05/26 01:12:01;;;;;;;3.63;0.80;;;11.90;1.00;;;;;;5042260;28;20048;-64
2021/05/26 01:14:51;;;;;;;3.97;0.95;;;11.80;1.00;;;;;;5054607;28;20052;-65
2021/05/26 01:17:40;;;;;;;2.85;0.93;;;11.80;1.00;;;;;;5065692;28;20036;-65
2021/05/26 01:20:30;;;;;;;3.58;1.67;;;11.70;1.00;;;;;;5067712;28;20052;-65
2021/05/26 01:23:19;;;;;;;2.47;1.10;;;11.80;1.00;;;;;;5051598;28;20182;-66
2021/05/26 01:26:13;;;;;;;2.33;0.90;;;11.80;1.00;;;;;;5055208;28;20052;-66
2021/05/26 01:29:03;;;;;;;2.70;0.90;;;11.80;1.00;;;;;;5053389;28;20052;-66
2021/05/26 01:31:53;;;;;;;5.30;1.00;;;11.90;1.00;;;;;;5061251;28;20162;-65
2021/05/26 01:34:42;;;;;;;1.38;0.70;;;11.90;1.00;;;;;;5075299;28;20048;-65
2021/05/26 01:37:38;;;;;;;3.40;0.73;;;11.90;1.00;;;;;;5068563;28;20052;-65
2021/05/26 01:40:27;;;;;;;2.70;0.70;;;11.80;1.00;;;;;;5066127;28;20036;-64
2021/05/26 01:43:15;;;;;;;1.65;1.02;;;11.80;1.00;;;;;;5065568;28;20044;-65
2021/05/26 01:46:04;;;;;;;2.33;0.90;;;11.80;1.00;;;;;;5054967;28;20071;-66
2021/05/26 01:48:55;;;;;;;6.63;1.45;;;11.80;1.00;;;;;;5060563;28;20037;-66
2021/05/26 01:51:43;;;;;;;3.20;0.90;;;11.80;1.00;;;;;;5066759;28;20427;-66
2021/05/26 01:54:32;;;;;;;3.15;0.98;;;11.80;1.00;;;;;;5069193;28;20048;-66
2021/05/26 01:57:22;;;;;;;2.25;0.88;;;11.80;1.00;;;;;;5063559;28;20044;-65
2021/05/26 02:00:13;;;;;;;1.88;1.30;;;11.70;1.00;;;;;;5057944;28;20044;-65
2021/05/26 02:03:06;;;;;;;1.58;0.80;;;11.70;1.00;;;;;;5066920;28;20526;-66
2021/05/26 02:05:54;;;;;;;2.20;1.13;;;11.60;1.00;;;;;;5065977;28;20056;-64
2021/05/26 02:08:44;;;;;;;1.75;0.70;;;11.60;1.00;;;;;;5065204;28;20177;-65
2021/05/26 02:14:42;;;;;;;1.13;0.65;;;11.50;1.00;;;;;;5052818;28;20539;-65
2021/05/26 02:17:30;;;;;;;4.03;1.00;;;11.50;1.00;;;;;;5065718;28;20086;-65
2021/05/26 02:20:19;;;;;;;2.28;0.90;;;11.50;1.00;;;;;;5062870;28;20508;-65
2021/05/26 02:23:10;;;;;;;4.82;1.00;;;11.40;1.00;;;;;;5061843;28;20190;-65
2021/05/26 02:26:00;;;;;;;3.53;0.80;;;11.50;1.00;;;;;;5050250;28;20124;-65
2021/05/26 02:28:48;;;;;;;1.52;0.68;;;11.40;1.00;;;;;;5056169;28;20499;-65
2021/05/26 02:31:40;;;;;;;2.85;0.85;;;11.40;1.00;;;;;;5049809;28;20388;-65
2021/05/26 02:34:28;;;;;;;5.15;0.90;;;11.40;1.00;;;;;;5067254;28;20125;-65
2021/05/26 02:37:16;;;;;;;2.35;0.60;;;11.40;1.00;;;;;;5068538;28;20048;-65
2021/05/26 02:40:05;;;;;;;3.28;0.75;;;11.40;1.00;;;;;;5059197;28;20054;-65
2021/05/26 02:42:53;;;;;;;1.23;0.60;;;11.40;1.00;;;;;;5062271;28;20056;-66
2021/05/26 02:45:42;;;;;;;2.72;0.80;;;11.30;1.00;;;;;;5067207;28;20133;-66
2021/05/26 02:48:30;;;;;;;3.53;1.42;;;11.30;1.00;;;;;;5064228;28;20052;-64
2021/05/26 02:51:18;;;;;;;1.83;0.90;;;11.30;1.00;;;;;;5063869;28;20084;-64
2021/05/26 02:54:08;;;;;;;3.88;0.70;;;11.30;1.00;;;;;;5054635;28;20048;-65
2021/05/26 02:56:56;;;;;;;1.35;0.80;;;11.30;1.00;;;;;;5053581;28;20067;-65
2021/05/26 03:00:05;;;;;;;4.05;0.98;;;11.30;1.00;;;;;;5065251;28;20049;-63
2021/05/26 03:03:09;;;;;;;3.35;1.10;;;11.30;1.00;;;;;;5049435;28;20052;-65
2021/05/26 03:06:01;;;;;;;4.82;1.00;;;11.20;1.00;;;;;;5067985;28;20045;-65
2021/05/26 03:08:49;;;;;;;3.17;1.00;;;11.10;1.00;;;;;;5054477;28;20504;-66
2021/05/26 03:11:41;;;;;;;2.55;1.00;;;11.20;1.00;;;;;;5065557;28;20060;-65
2021/05/26 03:14:36;;;;;;;1.98;0.73;;;11.20;1.00;;;;;;5063107;28;20048;-65
2021/05/26 03:17:29;;;;;;;1.95;0.80;;;11.30;1.00;;;;;;5066122;28;20084;-65
2021/05/26 03:20:20;;;;;;;1.17;0.70;;;11.20;1.00;;;;;;5051675;28;20430;-65
2021/05/26 03:23:21;;;;;;;1.88;0.85;;;11.30;1.00;;;;;;5065603;28;20083;-65
2021/05/26 03:26:35;;;;;;;2.87;0.90;;;11.20;1.00;;;;;;5068115;28;20048;-65
2021/05/26 03:29:23;;;;;;;2.42;0.93;;;11.20;1.00;;;;;;5063625;28;20281;-65
2021/05/26 03:32:11;;;;;;;5.00;1.13;;;11.10;1.00;;;;;;5059076;28;20044;-65
2021/05/26 03:35:02;;;;;;;3.05;0.80;;;10.90;1.00;;;;;;5069307;28;20051;-65
2021/05/26 03:37:50;;;;;;;3.72;1.02;;;10.80;1.00;;;;;;5067041;28;20048;-65
2021/05/26 03:40:39;;;;;;;3.97;1.30;;;10.80;1.00;;;;;;5051143;28;20071;-63
2021/05/26 03:43:28;;;;;;;4.43;0.98;;;10.70;1.50;;;;;;5062474;28;20503;-66
2021/05/26 03:46:17;;;;;;;2.45;0.98;;;10.80;3.20;;;;;;5063354;28;20053;-65
2021/05/26 03:49:07;;;;;;;6.05;1.30;;;10.70;2.50;;;;;;5049069;28;20055;-66
2021/05/26 03:51:55;;;;;;;3.00;1.10;;;10.70;3.20;;;;;;5065265;28;20531;-65
2021/05/26 03:54:43;;;;;;;4.35;1.27;;;10.70;3.50;;;;;;5046228;28;20052;-64
2021/05/26 03:57:32;;;;;;;3.25;1.10;;;10.80;3.50;;;;;;5064149;28;20048;-64
2021/05/26 04:00:22;;;;;;;2.00;0.80;;;10.70;3.10;;;;;;5064840;28;20037;-64
2021/05/26 04:03:25;;;;;;;2.92;1.05;;;10.70;3.30;;;;;;5067434;28;20464;-64
2021/05/26 04:06:14;;;;;;;3.10;1.10;;;10.70;2.30;;;;;;5064704;28;20124;-65
2021/05/26 04:09:04;;;;;;;3.75;1.25;;;10.70;1.80;;;;;;5063490;28;20154;-64
2021/05/26 04:11:59;;;;;;;4.72;1.40;;;10.80;1.30;;;;;;5057979;28;20052;-65
2021/05/26 04:15:04;;;;;;;9.32;1.83;;;10.80;1.00;;;;;;5060140;28;20128;-64
2021/05/26 04:18:10;;;;;;;4.50;1.40;;;10.90;1.00;;;;;;5068120;28;20044;-65
2021/05/26 04:21:03;;;;;;;3.55;1.10;;;10.90;1.00;;;;;;5053470;28;20523;-65
2021/05/26 04:23:52;;;;;;;5.95;1.30;;;10.90;1.00;;;;;;5052745;28;20036;-66
2021/05/26 04:26:40;;;;;;;5.50;1.35;;;10.90;1.00;;;;;;5063142;28;20047;-65
2021/05/26 04:29:30;;;;;;;5.93;1.30;;;10.90;1.00;;;;;;5059554;28;20072;-66
2021/05/26 04:32:19;;;;;;;2.35;1.10;;;11.00;1.00;;;;;;5053510;28;20488;-65
2021/05/26 04:35:07;;;;;;;2.28;1.17;;;11.00;1.00;;;;;;5063657;28;20053;-64
2021/05/26 04:37:55;;;;;;;2.17;1.00;;;11.00;1.00;;;;;;5064555;28;20052;-64
2021/05/26 04:40:43;;;;;;;2.70;0.90;;;11.10;1.00;;;;;;5061140;28;20044;-64
2021/05/26 04:43:31;;;;;;;2.20;0.77;;;11.10;1.00;;;;;;5067943;28;20044;-65
2021/05/26 04:46:19;;;;;;;6.30;1.38;;;11.10;1.00;;;;;;5064961;28;20042;-65
2021/05/26 04:49:07;;;;;;;3.22;1.20;;;11.10;1.00;;;;;;5060160;28;20411;-64
2021/05/26 04:51:56;;;;;;;2.92;0.90;;;11.10;1.00;;;;;;5061276;28;20050;-66
2021/05/26 04:54:44;;;;;;;2.17;0.80;;;11.10;1.00;;;;;;5066061;28;20135;-65
2021/05/26 04:57:32;;;;;;;2.78;1.08;;;11.20;1.00;;;;;;5064310;28;20138;-64
2021/05/26 05:00:21;;;;;;;3.92;1.10;;;11.10;1.00;;;;;;5064407;28;20033;-64
2021/05/26 05:03:08;;;;;;;4.22;0.90;;;11.20;1.00;;;;;;5047295;28;20141;-66
2021/05/26 05:05:57;;;;;;;7.63;1.38;;;11.20;1.00;;;;;;5051091;28;20397;-65
2021/05/26 05:08:45;;;;;;;3.28;1.17;;;11.20;1.00;;;;;;5067585;28;20051;-65
2021/05/26 05:11:33;;;;;;;2.10;0.88;;;11.10;1.00;;;;;;5066391;28;20052;-63
2021/05/26 05:14:21;;;;;;;2.38;0.93;;;11.10;1.00;;;;;;5061195;28;20592;-64
2021/05/26 05:17:10;;;;;;;3.60;1.50;;;11.00;1.70;;;;;;5058433;28;20041;-64
2021/05/26 05:19:58;;;;;;;4.63;1.30;;;11.00;2.50;;;;;;5065106;28;20041;-63
2021/05/26 05:22:47;;;;;;;2.50;1.15;;;10.90;2.70;;;;;;5056986;28;20041;-64
2021/05/26 05:25:35;;;;;;;2.75;1.30;;;10.90;3.90;;;;;;5063905;28;20049;-64
2021/05/26 05:28:23;;;;;;;4.05;1.30;;;10.80;4.60;;;;;;5062932;28;20056;-63
2021/05/26 05:31:11;;;;;;;4.60;1.30;;;10.90;5.20;;;;;;5052333;28;20495;-63
2021/05/26 05:33:59;;;;;;;3.47;1.30;;;10.70;7.40;;;;;;5060192;28;20099;-63
2021/05/26 05:36:47;;;;;;;3.45;1.20;;;10.70;8.00;;;;;;5064365;28;20095;-63
2021/05/26 05:39:35;;;;;;;2.25;0.98;;;10.60;8.20;;;;;;5063721;28;20048;-64
2021/05/26 05:42:24;;;;;;;4.20;1.05;;;10.70;9.80;;;;;;5061323;28;20059;-64
2021/05/26 05:45:12;;;;;;;2.45;1.08;;;10.70;9.30;;;;;;5066601;28;20048;-64
2021/05/26 05:48:00;;;;;;;3.63;1.40;;;10.70;9.60;;;;;;5066587;28;20055;-63
2021/05/26 05:50:48;;;;;;;3.38;1.23;;;10.70;12.60;;;;;;5063735;28;20028;-64
2021/05/26 05:53:36;;;;;;;3.92;1.40;;;10.60;12.80;;;;;;5067815;28;20149;-64
2021/05/26 05:56:25;;;;;;;4.55;1.42;;;10.60;12.80;;;;;;5067201;28;20071;-64
2021/05/26 05:59:13;;;;;;;3.15;1.27;;;10.60;14.50;;;;;;5067054;28;20049;-65
2021/05/26 06:02:01;;;;;;;4.05;1.50;;;10.60;14.60;;;;;;5064628;28;20037;-63
2021/05/26 06:04:49;;;;;;;3.95;1.88;;;10.60;14.30;;;;;;5065937;28;20048;-63
2021/05/26 06:07:38;;;;;;;3.63;1.13;;;10.70;16.80;;;;;;5049681;28;20507;-65
2021/05/26 06:10:26;;;;;;;1.77;1.00;;;10.70;15.50;;;;;;5066959;28;20036;-65
2021/05/26 06:13:15;;;;;;;3.35;1.30;;;10.70;16.40;;;;;;5065455;28;20056;-63
2021/05/26 06:16:03;;;;;;;5.47;1.40;;;10.70;17.20;;;;;;5066330;28;20052;-63
2021/05/26 06:18:51;;;;;;;4.07;1.30;;;10.70;19.00;;;;;;5066044;28;20128;-64
2021/05/26 06:21:39;;;;;;;3.03;1.13;;;10.60;18.50;;;;;;5062103;28;20515;-63
2021/05/26 06:24:29;;;;;;;5.35;1.50;;;10.70;20.60;;;;;;5045340;28;20048;-64
2021/05/26 06:27:17;;;;;;;3.17;1.45;;;10.60;19.00;;;;;;5065642;28;20044;-65
2021/05/26 06:30:08;;;;;;;2.33;1.25;;;10.80;21.30;;;;;;5067450;28;20045;-65
2021/05/26 06:32:56;;;;;;;4.07;2.08;;;10.80;21.60;;;;;;5063025;28;20051;-64
2021/05/26 06:35:44;;;;;;;3.40;1.10;;;10.80;22.60;;;;;;5065289;28;20056;-65
2021/05/26 06:38:32;;;;;;;3.08;1.38;;;10.70;21.80;;;;;;5066511;28;20052;-64
2021/05/26 06:41:20;;;;;;;4.47;1.35;;;10.90;23.20;;;;;;5049325;28;20081;-64
2021/05/26 06:44:10;;;;;;;2.58;1.42;;;10.90;23.50;;;;;;5064131;28;20529;-64
2021/05/26 06:46:59;;;;;;;4.40;1.52;;;10.90;24.50;;;;;;5064272;28;20052;-64
2021/05/26 06:49:47;;;;;;;3.60;1.60;;;11.00;25.60;;;;;;5065525;28;20130;-64
2021/05/26 06:52:36;;;;;;;5.28;1.95;;;11.00;26.20;;;;;;5064040;28;20107;-64
2021/05/26 06:55:27;;;;;;;3.25;1.48;;;10.90;27.90;;;;;;5067053;28;20051;-65
2021/05/26 06:58:17;;;;;;;3.10;1.40;;;11.00;29.60;;;;;;5050420;28;20041;-65
2021/05/26 07:01:05;;;;;;;11.82;1.90;;;11.00;29.50;;;;;;5066278;28;20047;-65
2021/05/26 07:03:54;;;;;;;4.57;1.77;;;11.00;30.90;;;;;;5067243;28;20044;-64
2021/05/26 07:06:42;;;;;;;3.65;1.45;;;11.00;31.60;;;;;;5065237;28;20133;-63
2021/05/26 07:09:30;;;;;;;2.92;1.25;;;11.00;30.90;;;;;;5065752;28;20048;-64
2021/05/26 07:12:20;;;;;;;3.20;1.60;;;11.00;28.80;;;;;;5064408;28;20040;-65
2021/05/26 07:15:09;;;;;;;4.63;1.95;;;11.00;28.80;;;;;;5055510;28;20492;-64
2021/05/26 07:18:02;;;;;;;3.35;1.90;;;11.10;29.10;;;;;;5052894;28;20052;-63
2021/05/26 07:20:53;;;;;;;4.22;1.70;;;11.20;28.40;;;;;;5061956;28;20135;-64
2021/05/26 07:23:41;;;;;;;2.90;1.52;;;11.20;28.00;;;;;;5062105;28;20063;-64
2021/05/26 07:26:29;;;;;;;6.30;1.70;;;11.20;29.70;;;;;;5062673;28;20048;-64
2021/05/26 07:29:17;;;;;;;4.70;1.50;;;11.30;28.40;;;;;;5067820;28;20051;-64
2021/05/26 07:32:05;;;;;;;4.78;1.80;;;11.30;29.30;;;;;;5063600;28;20415;-64
2021/05/26 07:34:53;;;;;;;11.73;6.00;;;11.20;29.00;;;;;;5064272;28;20166;-63
2021/05/26 07:37:42;;;;;;;3.47;1.63;;;11.30;28.40;;;;;;5064219;28;20036;-63
2021/05/26 07:40:30;;;;;;;6.50;1.67;;;11.30;26.40;;;;;;5061536;28;20079;-64
2021/05/26 07:43:20;;;;;;;4.47;1.80;;;11.30;29.20;;;;;;5063175;28;20075;-64
2021/05/26 07:46:08;;;;;;;5.47;1.98;;;11.20;27.10;;;;;;5067352;28;20048;-64
2021/05/26 07:48:55;;;;;;;4.88;1.58;;;11.40;29.50;;;;;;5063016;28;20106;-64
2021/05/26 07:51:49;;;;;;;6.03;1.73;;;11.40;28.70;;;;;;5044009;28;20041;-64
2021/05/26 07:54:38;;;;;;;3.83;1.60;;;11.50;28.00;;;;;;5063716;28;20059;-64
2021/05/26 07:57:26;;;;;;;4.82;1.80;;;11.60;27.10;;;;;;5059177;28;20064;-62
2021/05/26 08:00:15;;;;;;;8.68;2.38;;;11.40;24.80;;;;;;5064217;28;20504;-62
2021/05/26 08:03:04;;;;;;;7.72;2.17;;;11.50;27.20;;;;;;5065169;28;20542;-63
2021/05/26 08:05:51;;;;;;;6.18;1.60;;;11.50;27.50;;;;;;5061541;28;20415;-63
2021/05/26 08:08:39;;;;;;;3.42;2.00;;;11.60;27.80;;;;;;5063061;28;20048;-64
2021/05/26 08:11:28;;;;;;;3.88;1.73;;;11.60;24.60;;;;;;5063600;28;20048;-64
2021/05/26 08:14:16;;;;;;;4.65;1.90;;;11.80;26.50;;;;;;5061721;28;20102;-64
2021/05/26 08:17:04;;;;;;;3.95;1.60;;;11.80;26.70;;;;;;5065130;28;20455;-64
2021/05/26 08:19:52;;;;;;;4.00;1.40;;;11.90;25.70;;;;;;5063929;28;20056;-64
2021/05/26 08:22:40;;;;;;;3.55;1.45;;;12.00;25.50;;;;;;5064516;28;20503;-65
2021/05/26 08:25:29;;;;;;;5.38;1.50;;;11.90;23.30;;;;;;5062368;28;20067;-63
2021/05/26 08:28:18;;;;;;;3.00;1.35;;;12.00;26.00;;;;;;5064483;28;20457;-65
2021/05/26 08:31:06;;;;;;;4.72;1.70;;;11.90;24.70;;;;;;5065728;28;20048;-64
2021/05/26 08:33:54;;;;;;;5.30;1.80;;;11.80;23.30;;;;;;5060141;28;20148;-65
2021/05/26 08:36:42;;;;;;;5.00;1.70;;;11.70;21.50;;;;;;5061587;28;20044;-63
2021/05/26 08:39:33;;;;;;;4.07;1.48;;;11.80;23.30;;;;;;5063258;28;21270;-65
2021/05/26 08:42:21;;;;;;;3.92;1.75;;;11.80;23.80;;;;;;5067528;28;20045;-64
2021/05/26 08:45:12;;;;;;;4.28;1.65;;;11.70;23.20;;;;;;5062451;28;20071;-65
2021/05/26 08:48:05;;;;;;;4.80;1.67;;;11.70;22.70;;;;;;5060444;28;20438;-65
2021/05/26 08:50:53;;;;;;;3.53;1.77;;;11.80;20.30;;;;;;5065014;28;20075;-65
2021/05/26 08:53:41;;;;;;;5.15;1.25;;;11.60;17.50;;;;;;5065205;28;20049;-65
2021/05/26 08:56:29;;;;;;;2.67;1.40;;;11.80;19.10;;;;;;5063616;28;20048;-63
2021/05/26 08:59:22;;;;;;;4.30;1.40;;;11.80;17.80;;;;;;5062136;28;20049;-63
2021/05/26 09:02:11;;;;;;;2.58;1.52;;;11.90;17.50;;;;;;5064784;28;20518;-64
2021/05/26 09:04:59;;;;;;;3.78;1.63;;;12.00;19.40;;;;;;5062056;28;20067;-65
2021/05/26 09:07:47;;;;;;;3.85;1.33;;;12.00;16.40;;;;;;5067175;28;20051;-65
2021/05/26 09:10:46;;;;;;;6.22;1.50;;;12.00;12.80;;;;;;5069728;28;20831;-64
2021/05/26 09:13:35;;;;;;;4.10;1.75;;;11.80;11.00;;;;;;5063795;28;20508;-65
2021/05/26 09:16:33;;;;;;;9.98;1.83;;;11.70;11.30;;;;;;5063017;28;20080;-65
2021/05/26 09:19:21;;;;;;;4.38;1.20;;;11.90;11.30;;;;;;5060960;28;20140;-64
2021/05/26 09:22:10;;;;;;;2.60;1.17;;;12.00;10.20;;;;;;5066467;28;20053;-64
2021/05/26 09:25:06;;;;;;;3.30;1.60;;;12.00;11.70;;;;;;5067060;28;20052;-65
2021/05/26 09:28:17;;;;;;;4.07;1.50;;;12.00;10.30;;;;;;5068020;28;20166;-64
2021/05/26 09:31:07;;;;;;;5.10;1.85;;;12.10;10.30;;;;;;5063040;28;20068;-65
2021/05/26 09:33:56;;;;;;;4.35;1.50;;;12.10;9.20;;;;;;5068958;28;20056;-65
2021/05/26 09:36:45;;;;;;;4.25;1.75;;;12.10;9.90;;;;;;5067771;28;20044;-64
2021/05/26 09:39:44;;;;;;;4.32;1.40;;;12.40;8.20;;;;;;5072041;28;20045;-65
2021/05/26 09:42:35;;;;;;;3.53;1.30;;;12.40;6.70;;;;;;5070932;28;20528;-65
2021/05/26 09:45:26;;;;;;;3.25;1.20;;;12.40;5.70;;;;;;5047053;28;20045;-65
2021/05/26 09:48:14;;;;;;;3.42;1.35;;;12.40;5.30;;;;;;5070183;28;20044;-64
2021/05/26 09:51:05;;;;;;;4.53;1.63;;;12.50;8.10;;;;;;5069827;28;20448;-65
2021/05/26 09:54:11;;;;;;;4.75;2.03;;;12.70;5.10;;;;;;5061748;28;20043;-65
2021/05/26 09:57:06;;;;;;;3.92;1.25;;;12.30;2.50;;;;;;5064298;28;20066;-65
2021/05/26 09:59:55;;;;;;;3.45;1.17;;;12.70;3.10;;;;;;5058731;28;20538;-64
2021/05/26 10:02:43;;;;;;;5.68;1.30;;;12.50;2.90;;;;;;5058764;28;20702;-64
2021/05/26 10:05:31;;;;;;;4.78;3.00;;;12.60;4.40;;;;;;5057709;28;20071;-64
2021/05/26 10:08:41;;;;;;;2.25;0.95;;;12.60;1.70;;;;;;5051246;28;20500;-65
2021/05/26 10:11:53;;;;;;;3.35;1.33;;;12.80;3.20;;;;;;5065826;28;20052;-65
2021/05/26 10:14:44;;;;;;;1.90;1.10;;;12.70;3.60;;;;;;5036906;28;20049;-65
2021/05/26 10:17:35;;;;;;;2.22;1.17;;;12.60;1.00;;;;;;5062488;28;20507;-66
2021/05/26 10:20:25;;;;;;;5.32;1.02;;;12.60;1.50;;;;;;5058239;28;20087;-66
2021/05/26 10:23:16;;;;;;;1.63;0.90;;;12.40;3.30;;;;;;5062242;28;20530;-65
2021/05/26 10:26:05;;;;;;;3.60;1.35;;;12.60;1.30;;;;;;5064132;28;20048;-65
2021/05/26 10:28:53;;;;;;;6.32;1.67;;;12.80;2.30;;;;;;5061719;28;20105;-64
2021/05/26 10:31:41;;;;;;;1.70;0.80;;;13.00;1.00;;;;;;5056627;28;20056;-65
2021/05/26 10:35:07;;;;;;;2.92;0.80;;;12.60;1.00;;;;;;5060244;28;20511;-64
2021/05/26 10:38:03;;;;;;;1.33;0.70;;;12.80;1.00;;;;;;5060406;28;20045;-64
2021/05/26 10:40:52;;;;;;;1.38;0.80;;;12.80;1.00;;;;;;5062778;28;20052;-65
2021/05/26 10:43:51;;;;;;;2.55;0.80;;;12.80;1.00;;;;;;5034978;28;20037;-63
2021/05/26 10:46:41;;;;;;;0.90;0.68;;;13.00;1.40;;;;;;5050228;28;20052;-65
2021/05/26 10:49:49;;;;;;;2.65;0.88;;;13.20;1.00;;;;;;5051417;28;20531;-65
2021/05/26 10:53:10;;;;;;;4.63;0.77;;;13.20;1.00;;;;;;5048429;28;20052;-65
2021/05/26 10:55:58;;;;;;;0.88;0.47;;;13.30;1.00;;;;;;5052890;28;20056;-65
2021/05/26 10:58:46;;;;;;;1.60;0.40;;;13.30;1.00;;;;;;5057215;28;20048;-65
2021/05/26 11:02:09;;;;;;;0.90;0.68;;;13.80;1.00;;;;;;5050925;28;20496;-65
2021/05/26 11:05:35;;;;;;;3.05;0.60;;;13.90;1.00;;;;;;5048426;28;20108;-65
2021/05/26 11:08:42;;;;;;;0.95;0.40;;;13.50;1.00;;;;;;5051378;28;20458;-64
2021/05/26 11:11:49;;;;;;;0.90;0.50;;;13.60;1.00;;;;;;5024745;28;20048;-64
2021/05/26 11:14:40;;;;;;;4.75;0.70;;;13.70;1.00;;;;;;5054162;28;20417;-66
2021/05/26 11:17:35;;;;;;;0.93;0.65;;;13.60;1.00;;;;;;5040856;28;20063;-65
2021/05/26 11:20:27;;;;;;;4.90;0.45;;;13.60;1.00;;;;;;5056417;28;20130;-65
2021/05/26 11:23:15;;;;;;;1.15;0.40;;;13.70;1.00;;;;;;5050125;28;20037;-65
2021/05/26 11:26:04;;;;;;;1.10;0.50;;;13.50;1.00;;;;;;5042470;28;20048;-65
2021/05/26 11:28:52;;;;;;;2.85;0.98;;;13.60;1.00;;;;;;5048982;28;20860;-65
2021/05/26 11:31:40;;;;;;;2.42;0.70;;;13.90;1.00;;;;;;5052090;28;20522;-64
2021/05/26 11:34:29;;;;;;;1.33;0.55;;;13.70;1.00;;;;;;5052376;28;20051;-65
2021/05/26 11:37:28;;;;;;;0.93;0.50;;;13.60;1.00;;;;;;5041351;28;20287;-64
2021/05/26 11:40:29;;;;;;;1.25;0.60;;;13.50;1.00;;;;;;5052486;28;21376;-64
2021/05/26 11:43:19;;;;;;;2.67;0.63;;;13.60;1.00;;;;;;5057524;28;20094;-65
2021/05/26 11:46:09;;;;;;;2.25;0.60;;;13.70;1.00;;;;;;5046288;28;20056;-64
2021/05/26 11:48:57;;;;;;;1.35;0.50;;;13.80;1.00;;;;;;5053213;28;20127;-64
2021/05/26 11:51:45;;;;;;;1.67;0.63;;;13.80;1.00;;;;;;5052216;28;20131;-64
2021/05/26 11:54:35;;;;;;;1.55;0.95;;;14.20;1.00;;;;;;5053638;28;20503;-64
2021/05/26 11:57:32;;;;;;;2.75;1.00;;;14.30;1.00;;;;;;5041469;28;20052;-63
2021/05/26 12:00:24;;;;;;;7.70;0.90;;;14.10;1.00;;;;;;5052272;28;20046;-64
2021/05/26 12:03:13;;;;;;;1.10;0.70;;;14.00;1.00;;;;;;5049342;28;20044;-65
2021/05/26 12:06:01;;;;;;;1.25;0.63;;;14.50;1.00;;;;;;5047634;28;20057;-65
2021/05/26 12:08:51;;;;;;;0.80;0.50;;;14.60;1.00;;;;;;5057491;28;20123;-65
2021/05/26 12:11:39;;;;;;;2.72;0.52;;;14.30;1.00;;;;;;5040148;28;20568;-63
2021/05/26 12:14:29;;;;;;;1.80;0.50;;;14.70;1.00;;;;;;5052090;28;20557;-65
2021/05/26 12:17:18;;;;;;;3.03;0.73;;;15.10;1.00;;;;;;5043571;28;20052;-65
2021/05/26 12:20:07;;;;;;;3.08;0.70;;;15.00;1.00;;;;;;5053135;28;20079;-64
2021/05/26 12:22:58;;;;;;;2.45;0.80;;;15.30;1.00;;;;;;5050470;28;20764;-64
2021/05/26 12:25:47;;;;;;;1.75;0.68;;;15.30;1.00;;;;;;5054754;28;20088;-64
2021/05/26 12:28:35;;;;;;;1.25;0.50;;;15.00;1.00;;;;;;5051482;28;20051;-64
2021/05/26 12:31:27;;;;;;;2.35;1.13;;;15.20;1.00;;;;;;5036620;28;20049;-65
2021/05/26 12:34:16;;;;;;;4.63;0.50;;;15.30;1.00;;;;;;5049256;28;20056;-65
2021/05/26 12:37:05;;;;;;;1.35;0.60;;;15.70;1.00;;;;;;5042304;28;20048;-64
2021/05/26 12:39:53;;;;;;;4.57;0.82;;;16.00;1.00;;;;;;5053406;28;20063;-64
2021/05/26 12:42:42;;;;;;;1.20;0.65;;;15.90;1.00;;;;;;5046537;28;20044;-64
2021/05/26 12:45:31;;;;;;;3.72;0.80;;;15.70;1.00;;;;;;5051783;28;20048;-65
2021/05/26 12:48:20;;;;;;;0.70;0.43;;;15.60;1.00;;;;;;5041508;28;20135;-65
2021/05/26 12:51:19;;;;;;;1.40;0.60;;;15.50;1.00;;;;;;5052532;28;20048;-66
2021/05/26 12:54:07;;;;;;;1.30;0.60;;;15.20;1.00;;;;;;5047772;28;20056;-64
2021/05/26 12:57:05;;;;;;;3.20;0.43;;;15.30;1.00;;;;;;5042870;28;20110;-64
2021/05/26 12:59:56;;;;;;;4.75;0.57;;;15.60;1.00;;;;;;5039360;28;20742;-63
2021/05/26 13:02:45;;;;;;;2.03;0.70;;;15.60;1.00;;;;;;5052285;28;20139;-64
2021/05/26 13:05:35;;;;;;;3.20;0.80;;;15.60;1.00;;;;;;5055613;28;20063;-64
2021/05/26 13:08:23;;;;;;;6.43;0.60;;;15.60;1.00;;;;;;5036133;28;20067;-64
2021/05/26 13:11:11;;;;;;;0.77;0.63;;;15.40;1.00;;;;;;5055335;28;20052;-64
2021/05/26 13:14:02;;;;;;;1.45;0.70;;;15.40;1.00;;;;;;5038660;28;20033;-64
2021/05/26 13:16:52;;;;;;;4.13;0.65;;;15.50;1.00;;;;;;5040608;28;20570;-64
2021/05/26 13:19:41;;;;;;;2.72;0.65;;;15.90;1.00;;;;;;5057225;28;20053;-64
2021/05/26 13:22:29;;;;;;;1.17;0.68;;;15.50;1.00;;;;;;5055028;28;20052;-65
2021/05/26 13:25:17;;;;;;;3.45;0.80;;;15.30;1.00;;;;;;5057166;28;20048;-64
2021/05/26 13:28:08;;;;;;;2.58;0.85;;;15.50;1.00;;;;;;5044823;28;20641;-64
2021/05/26 13:30:57;;;;;;;2.00;0.75;;;15.60;1.00;;;;;;5052066;28;20060;-64
2021/05/26 13:33:46;;;;;;;1.92;0.80;;;15.90;1.00;;;;;;5053679;28;20051;-64
2021/05/26 13:36:36;;;;;;;2.08;0.88;;;15.60;1.00;;;;;;5041686;28;20217;-64
2021/05/26 13:39:28;;;;;;;1.48;0.85;;;15.70;1.00;;;;;;5055996;28;20048;-64
2021/05/26 13:42:16;;;;;;;1.60;0.80;;;16.00;1.00;;;;;;5051045;28;20124;-64
2021/05/26 13:45:06;;;;;;;1.83;0.80;;;16.10;1.00;;;;;;5037779;28;20120;-64
2021/05/26 13:47:54;;;;;;;2.00;0.90;;;15.90;1.00;;;;;;5033005;28;20600;-64
2021/05/26 13:50:43;;;;;;;1.45;0.70;;;16.00;1.00;;;;;;5055773;28;20452;-64
2021/05/26 13:53:31;;;;;;;1.92;0.73;;;15.70;1.00;;;;;;5050739;28;20041;-66
2021/05/26 13:56:19;;;;;;;1.88;0.60;;;15.80;1.00;;;;;;5041434;28;20060;-65
2021/05/26 13:59:07;;;;;;;3.78;0.57;;;16.10;1.00;;;;;;5049972;28;20146;-65
2021/05/26 14:01:55;;;;;;;3.28;0.75;;;15.90;1.00;;;;;;5037891;28;20679;-65
2021/05/26 14:04:43;;;;;;;9.48;4.32;;;15.90;1.00;;;;;;5054295;28;20892;-65
2021/05/26 14:07:32;;;;;;;3.65;1.10;;;15.90;1.00;;;;;;5043084;28;20117;-65
2021/05/26 14:10:21;;;;;;;3.75;0.90;;;15.60;1.00;;;;;;5050881;28;20167;-65
2021/05/26 14:13:11;;;;;;;2.45;0.70;;;15.70;1.00;;;;;;5048352;28;20052;-65
2021/05/26 14:16:01;;;;;;;3.53;1.27;;;15.70;1.00;;;;;;5053030;28;20060;-65
2021/05/26 14:18:49;;;;;;;3.60;1.00;;;15.50;1.00;;;;;;5054185;28;20882;-65
2021/05/26 14:21:39;;;;;;;2.50;0.90;;;15.40;1.00;;;;;;5037372;28;20049;-65
2021/05/26 14:24:28;;;;;;;2.53;0.90;;;15.40;1.00;;;;;;5049757;28;20132;-65
2021/05/26 14:27:15;;;;;;;1.77;1.00;;;15.20;1.00;;;;;;5040126;28;20044;-65
2021/05/26 14:30:04;;;;;;;2.35;0.80;;;15.20;1.00;;;;;;5052783;28;20101;-64
2021/05/26 14:32:52;;;;;;;2.38;0.80;;;14.90;1.00;;;;;;5050891;28;20436;-65
2021/05/26 14:35:40;;;;;;;3.15;1.00;;;14.80;1.00;;;;;;5044132;28;20052;-64
2021/05/26 14:38:32;;;;;;;3.58;1.00;;;14.90;1.00;;;;;;5049191;28;20048;-64
2021/05/26 14:41:24;;;;;;;1.15;0.60;;;14.80;1.00;;;;;;5054671;28;20412;-64
2021/05/26 14:44:16;;;;;;;2.97;0.93;;;14.30;1.00;;;;;;5048632;28;20041;-65
2021/05/26 14:47:04;;;;;;;1.45;0.70;;;14.40;1.00;;;;;;5048281;28;20056;-65
2021/05/26 14:49:52;;;;;;;1.15;0.60;;;14.30;1.00;;;;;;5054301;28;20048;-65
2021/05/26 14:52:40;;;;;;;1.75;0.77;;;14.20;1.00;;;;;;5050666;28;20072;-65
2021/05/26 14:55:29;;;;;;;1.15;0.80;;;14.30;1.00;;;;;;5041989;28;20056;-65
2021/05/26 14:58:18;;;;;;;1.63;0.90;;;14.50;1.00;;;;;;5043951;28;20048;-65
2021/05/26 15:01:06;;;;;;;2.15;0.85;;;14.70;1.00;;;;;;5054806;28;20069;-64